Terminal Aerodrome Forecast
Issued by NWS Wilmington, OH

Current Version | Previous Version | Graphics & Text | Print | Product List | Glossary On
Versions: 1 2 3 4 5 6 7 8 9 10 11 12 13 14 15 16
000
FTUS41 KILN 251126
TAFCMH
TAF
KCMH 251126Z 2512/2612 20009KT P6SM SCT150 OVC250
     FM260000 12005KT P6SM BKN140
     FM260400 12005KT P6SM VCSH BKN140
     FM260600 12006KT P6SM BKN110
     FM260900 13005KT P6SM -SHRA SCT040 BKN090=

USA.gov is the U.S. government's official web portal to all federal, state and local government web resources and services.